Saint Paul, Nebraska
Current Conditions -  °F | °C
As of 3:53 AM on Saturday 29 Nov 2014 (Local Time) from KGRI Reporting Station
Clear Clear  
Wind Chill: 41°   Ceiling: Unl
Heat Index: 46°   Visibility: 10mi
Dew Point: 20°   Wind: 12mph
Humidity: 35%   Direction: 260°W
Pressure: 29.59"   Gusts: NA
Location:  41.21°N, 98.46°W
Report Text: KGRI 290953Z AUTO 26010KT 10SM CLR 08/M07 A2959 RMK AO2 SLP021 T00781067
Loading
Personal Weather Stations






























Interactive Weather Map New forecast layout! Learn more

10-Day Weather Forecast

Advertisements
Track Severe Weather on mobile